Time;durP1;ratioP1;P1;durP2;ratioP2;P2;SDS_P1;SDS_P2;PMS_P1;PMS_P2;Temp;Humidity;BMP_temperature;BMP_pressure;BME280_temperature;BME280_humidity;BME280_pressure;Samples;Min_cycle;Max_cycle;Signal;HPM_P1;HPM_P2
2023/09/18 00:00:24;;;;;;;;;;;;;;;28.07;37.53;101300.88;5074833;28;1913;-31
2023/09/18 00:02:50;;;;;;;;;;;;;;;27.90;38.08;101294.69;5075195;28;1035;-34
2023/09/18 00:05:15;;;;;;;;;;;;;;;28.09;37.46;101296.13;5074995;28;1109;-35
2023/09/18 00:07:44;;;;;;;;;;;;;;;28.05;37.26;101290.22;5075197;28;1170;-31
2023/09/18 00:10:10;;;;;;;;;;;;;;;28.03;36.99;101286.84;5075769;28;1181;-30
2023/09/18 00:12:35;;;;;;;;;;;;;;;28.08;37.53;101287.16;5075085;28;1007;-30
2023/09/18 00:15:01;;;;;;;;;;;;;;;27.97;37.60;101279.44;5065200;28;1527;-31
2023/09/18 00:17:26;;;;;;;;;;;;;;;27.96;37.24;101281.28;5068727;28;1098;-28
2023/09/18 00:19:52;;;;;;;;;;;;;;;27.98;37.39;101283.81;5074831;28;1974;-34
2023/09/18 00:22:17;;;;;;;;;;;;;;;27.97;37.40;101274.88;5078842;28;861;-34
2023/09/18 00:24:43;;;;;;;;;;;;;;;27.96;37.35;101285.88;5078598;28;1006;-35
2023/09/18 00:27:11;;;;;;;;;;;;;;;27.94;37.48;101280.66;5069298;28;1101;-31
2023/09/18 00:29:36;;;;;;;;;;;;;;;27.97;37.53;101280.31;5074601;28;1084;-35
2023/09/18 00:32:02;;;;;;;;;;;;;;;28.07;37.18;101280.09;5079026;28;972;-32
2023/09/18 00:34:29;;;;;;;;;;;;;;;27.86;37.59;101280.69;5078140;28;1421;-34
2023/09/18 00:36:54;;;;;;;;;;;;;;;27.95;37.50;101289.59;5077909;28;1185;-31
2023/09/18 00:39:20;;;;;;;;;;;;;;;27.94;37.50;101287.91;5078695;28;1210;-35
2023/09/18 00:41:49;;;;;;;;;;;;;;;27.93;37.61;101286.22;5078338;28;1972;-36
2023/09/18 00:44:14;;;;;;;;;;;;;;;27.93;37.46;101278.09;5059814;28;2422;-34
2023/09/18 00:46:40;;;;;;;;;;;;;;;27.89;37.21;101280.34;5078224;28;1008;-31
2023/09/18 00:49:05;;;;;;;;;;;;;;;27.98;37.21;101287.38;5078071;28;1067;-32
2023/09/18 00:51:31;;;;;;;;;;;;;;;28.04;36.86;101276.88;5078415;28;1102;-29
2023/09/18 00:53:57;;;;;;;;;;;;;;;27.91;37.34;101289.09;5043273;28;1127;-31
2023/09/18 00:56:22;;;;;;;;;;;;;;;27.95;37.25;101279.63;5078466;28;1115;-32
2023/09/18 00:58:48;;;;;;;;;;;;;;;27.92;37.41;101279.97;5074361;28;1006;-32
2023/09/18 01:01:16;;;;;;;;;;;;;;;27.91;37.37;101272.03;5037972;28;1969;-29
2023/09/18 01:03:41;;;;;;;;;;;;;;;27.84;37.17;101275.44;5036348;28;1142;-33
2023/09/18 01:06:07;;;;;;;;;;;;;;;27.87;37.07;101272.41;5038063;28;1088;-33
2023/09/18 01:08:32;;;;;;;;;;;;;;;27.90;36.97;101270.34;5037942;28;992;-33
2023/09/18 01:11:07;;;;;;;;;;;;;;;27.80;37.41;101266.00;5037554;28;995;-29
2023/09/18 01:13:37;;;;;;;;;;;;;;;27.86;37.22;101261.75;5024642;28;1837;-33
2023/09/18 01:16:04;;;;;;;;;;;;;;;27.86;37.39;101261.75;5036269;28;1044;-33
2023/09/18 01:18:30;;;;;;;;;;;;;;;27.80;37.05;101257.03;5036664;28;1190;-34
2023/09/18 01:20:55;;;;;;;;;;;;;;;27.74;37.90;101259.41;5037503;28;1973;-30
2023/09/18 01:23:21;;;;;;;;;;;;;;;27.85;36.79;101254.66;5036656;28;1230;-32
2023/09/18 01:25:46;;;;;;;;;;;;;;;27.72;37.44;101250.66;5037487;28;1010;-34
2023/09/18 01:28:12;;;;;;;;;;;;;;;27.83;36.87;101253.97;5037221;28;1212;-32
2023/09/18 01:30:38;;;;;;;;;;;;;;;27.92;36.99;101255.66;5037398;28;1020;-34
2023/09/18 01:33:04;;;;;;;;;;;;;;;27.83;37.29;101262.09;5037509;28;1095;-32
2023/09/18 01:35:29;;;;;;;;;;;;;;;27.77;37.20;101255.53;5037407;28;1073;-31
2023/09/18 01:37:59;;;;;;;;;;;;;;;27.82;36.85;101258.56;5015928;28;1312;-35
2023/09/18 01:40:24;;;;;;;;;;;;;;;27.90;37.09;101254.97;5028372;28;1976;-32
2023/09/18 01:42:50;;;;;;;;;;;;;;;27.85;36.90;101260.06;5032034;28;1007;-33
2023/09/18 01:45:16;;;;;;;;;;;;;;;27.91;37.59;101272.03;5035484;28;2615;-34
2023/09/18 01:47:41;;;;;;;;;;;;;;;27.91;37.22;101263.94;5037813;28;1120;-34
2023/09/18 01:50:07;;;;;;;;;;;;;;;27.90;37.33;101262.22;5037013;28;1245;-34
2023/09/18 01:52:34;;;;;;;;;;;;;;;27.91;37.39;101269.34;5037131;28;1153;-35
2023/09/18 01:55:00;;;;;;;;;;;;;;;27.94;37.42;101261.72;5036816;28;1074;-32
2023/09/18 01:57:25;;;;;;;;;;;;;;;27.93;37.21;101260.03;5037077;28;1166;-33
2023/09/18 01:59:51;;;;;;;;;;;;;;;27.90;37.10;101262.22;5023575;28;1902;-32
2023/09/18 02:02:16;;;;;;;;;;;;;;;27.81;37.18;101256.84;5070101;28;1246;-30
2023/09/18 02:04:42;;;;;;;;;;;;;;;27.85;36.99;101258.22;5076556;28;1026;-33
2023/09/18 02:07:08;;;;;;;;;;;;;;;27.84;37.27;101263.78;5076699;28;1039;-32
2023/09/18 02:09:34;;;;;;;;;;;;;;;27.96;36.89;101262.38;5058468;28;1175;-34
2023/09/18 02:12:00;;;;;;;;;;;;;;;27.89;36.90;101263.25;5071248;28;1027;-33
2023/09/18 02:14:26;;;;;;;;;;;;;;;28.06;37.02;101264.03;5050058;28;2493;-30
2023/09/18 02:16:51;;;;;;;;;;;;;;;27.89;37.18;101261.41;5076643;28;1138;-30
2023/09/18 02:19:18;;;;;;;;;;;;;;;27.88;37.03;101259.69;5059186;28;1272;-31
2023/09/18 02:21:44;;;;;;;;;;;;;;;27.73;37.56;101263.16;5076055;28;1910;-30
2023/09/18 02:24:09;;;;;;;;;;;;;;;27.87;37.40;101261.59;5076507;28;1173;-32
2023/09/18 02:26:35;;;;;;;;;;;;;;;27.86;37.59;101265.28;5076450;28;1194;-32
2023/09/18 02:29:02;;;;;;;;;;;;;;;27.85;37.40;101268.16;5058233;28;1194;-31
2023/09/18 02:31:29;;;;;;;;;;;;;;;27.84;37.40;101269.19;5062565;28;1146;-36
2023/09/18 02:33:55;;;;;;;;;;;;;;;27.91;37.15;101269.34;5076297;28;1003;-33
2023/09/18 02:36:21;;;;;;;;;;;;;;;27.83;37.66;101267.50;5061327;28;1165;-32
2023/09/18 02:38:48;;;;;;;;;;;;;;;27.98;37.00;101265.75;5057785;28;1110;-37
2023/09/18 02:41:13;;;;;;;;;;;;;;;27.90;36.96;101263.09;5070562;28;1918;-32
2023/09/18 02:43:39;;;;;;;;;;;;;;;27.80;37.61;101265.16;5050256;28;1875;-33
2023/09/18 02:46:07;;;;;;;;;;;;;;;27.90;37.07;101270.34;5075895;28;1134;-31
2023/09/18 02:48:33;;;;;;;;;;;;;;;28.05;36.75;101265.03;5057886;28;1031;-31
2023/09/18 02:50:59;;;;;;;;;;;;;;;28.02;36.98;101260.84;5057456;28;1038;-33
2023/09/18 02:53:25;;;;;;;;;;;;;;;28.16;36.97;101261.94;5045645;28;1133;-33
2023/09/18 02:55:51;;;;;;;;;;;;;;;27.88;37.26;101257.00;5075280;28;1084;-32
2023/09/18 02:58:17;;;;;;;;;;;;;;;27.79;37.46;101258.91;5057912;28;1254;-34
2023/09/18 03:00:43;;;;;;;;;;;;;;;27.95;36.88;101268.81;5057526;28;1910;-32
2023/09/18 03:03:09;;;;;;;;;;;;;;;28.09;37.18;101266.38;5057869;28;1235;-31
2023/09/18 03:05:35;;;;;;;;;;;;;;;28.10;36.84;101271.59;5075985;28;1181;-33
2023/09/18 03:08:01;;;;;;;;;;;;;;;28.19;36.91;101274.28;5057884;28;1099;-32
2023/09/18 03:10:26;;;;;;;;;;;;;;;28.15;36.55;101273.78;5058220;28;1170;-31
2023/09/18 03:12:52;;;;;;;;;;;;;;;28.08;37.32;101270.09;5058038;28;1111;-33
2023/09/18 03:15:18;;;;;;;;;;;;;;;28.04;36.74;101268.78;5050223;28;1784;-30
2023/09/18 03:17:43;;;;;;;;;;;;;;;28.08;36.76;101278.19;5050343;28;1243;-33
2023/09/18 03:20:09;;;;;;;;;;;;;;;27.97;36.82;101272.19;5046547;28;1982;-31
2023/09/18 03:22:35;;;;;;;;;;;;;;;28.13;36.45;101275.81;5057448;28;1146;-32
2023/09/18 03:25:00;;;;;;;;;;;;;;;28.06;36.53;101269.44;5055966;28;1250;-34
2023/09/18 03:27:28;;;;;;;;;;;;;;;28.16;36.86;101264.63;5075063;28;1107;-29
2023/09/18 03:29:55;;;;;;;;;;;;;;;27.71;36.81;101267.88;5054163;28;1194;-32
2023/09/18 03:32:20;;;;;;;;;;;;;;;27.22;36.42;101269.69;5052667;28;1321;-35
2023/09/18 03:34:46;;;;;;;;;;;;;;;27.02;36.77;101269.19;5056144;28;1206;-36
2023/09/18 03:37:12;;;;;;;;;;;;;;;26.95;36.49;101263.59;5042562;28;2198;-32
2023/09/18 03:39:37;;;;;;;;;;;;;;;26.95;36.37;101266.28;5061308;28;1303;-36
2023/09/18 03:42:03;;;;;;;;;;;;;;;26.81;36.81;101256.19;5065166;28;1910;-36
2023/09/18 03:44:28;;;;;;;;;;;;;;;26.89;36.52;101261.56;5051020;28;1833;-32
2023/09/18 03:46:54;;;;;;;;;;;;;;;26.76;36.97;101265.59;5049339;28;1356;-34
2023/09/18 03:49:20;;;;;;;;;;;;;;;26.92;36.34;101258.53;5065427;28;1231;-32
2023/09/18 03:51:45;;;;;;;;;;;;;;;26.71;36.90;101264.44;5060082;28;1334;-32
2023/09/18 03:54:11;;;;;;;;;;;;;;;26.84;36.91;101263.94;5050404;28;1223;-33
2023/09/18 03:56:37;;;;;;;;;;;;;;;26.94;38.84;101267.31;5069918;28;1088;-34
2023/09/18 03:59:04;;;;;;;;;;;;;;;27.12;37.04;101274.41;5060991;28;1412;-29
2023/09/18 04:01:30;;;;;;;;;;;;;;;27.28;38.59;101272.72;5060751;28;1910;-30
2023/09/18 04:03:55;;;;;;;;;;;;;;;27.44;37.56;101278.09;5077025;28;1094;-34
2023/09/18 04:06:21;;;;;;;;;;;;;;;27.65;37.82;101275.81;5078254;28;1066;-29
2023/09/18 04:08:47;;;;;;;;;;;;;;;27.71;37.97;101275.16;5060712;28;1030;-29
2023/09/18 04:11:12;;;;;;;;;;;;;;;27.67;37.65;101277.34;5059608;28;1090;-28
2023/09/18 04:13:37;;;;;;;;;;;;;;;27.82;37.96;101284.75;5075673;28;2427;-30
2023/09/18 04:16:04;;;;;;;;;;;;;;;27.73;37.93;101276.66;5061079;28;1134;-31
2023/09/18 04:18:29;;;;;;;;;;;;;;;27.87;37.88;101283.22;5078708;28;1197;-28
2023/09/18 04:20:55;;;;;;;;;;;;;;;28.00;37.71;101281.78;5060793;28;1975;-31
2023/09/18 04:23:24;;;;;;;;;;;;;;;27.87;38.15;101285.06;5060612;28;1341;-29
2023/09/18 04:25:51;;;;;;;;;;;;;;;27.94;38.21;101286.06;5060700;28;1247;-29
2023/09/18 04:28:17;;;;;;;;;;;;;;;27.97;38.54;101288.41;5060371;28;1107;-27
2023/09/18 04:30:43;;;;;;;;;;;;;;;27.92;38.45;101277.28;5078670;28;1000;-33
2023/09/18 04:33:08;;;;;;;;;;;;;;;27.94;38.45;101293.31;5078957;28;1150;-31
2023/09/18 04:35:34;;;;;;;;;;;;;;;27.97;38.35;101285.72;5078462;28;1098;-30
2023/09/18 04:37:59;;;;;;;;;;;;;;;27.97;38.23;101288.41;5078509;28;1225;-29
2023/09/18 04:40:26;;;;;;;;;;;;;;;27.95;38.56;101285.03;5060234;28;1981;-30
2023/09/18 04:42:52;;;;;;;;;;;;;;;27.95;39.03;101285.03;5078188;28;1126;-30
2023/09/18 04:45:18;;;;;;;;;;;;;;;28.05;38.38;101290.22;5060302;28;2496;-32
2023/09/18 04:47:43;;;;;;;;;;;;;;;28.18;38.67;101286.09;5060187;28;1392;-30
2023/09/18 04:50:09;;;;;;;;;;;;;;;27.93;38.74;101286.22;5078001;28;999;-33
2023/09/18 04:52:36;;;;;;;;;;;;;;;28.01;38.96;101288.06;5059937;28;1293;-36
2023/09/18 04:55:01;;;;;;;;;;;;;;;27.91;38.80;101291.78;5047590;28;1394;-33
2023/09/18 04:57:27;;;;;;;;;;;;;;;27.78;38.79;101291.53;5059287;28;1020;-35
2023/09/18 04:59:52;;;;;;;;;;;;;;;27.89;38.77;101291.16;5059697;28;1273;-31
2023/09/18 05:02:18;;;;;;;;;;;;;;;27.90;38.91;101294.69;5060043;28;1918;-35
2023/09/18 05:04:44;;;;;;;;;;;;;;;27.90;38.38;101300.09;5077799;28;869;-34
2023/09/18 05:07:09;;;;;;;;;;;;;;;27.97;38.45;101293.81;5059879;28;1121;-34
2023/09/18 05:09:35;;;;;;;;;;;;;;;27.90;38.56;101297.38;5078009;28;1118;-34
2023/09/18 05:12:02;;;;;;;;;;;;;;;27.84;38.77;101299.75;5077525;28;1070;-33
2023/09/18 05:14:28;;;;;;;;;;;;;;;27.88;38.70;101302.97;5077473;28;1814;-30
2023/09/18 05:16:54;;;;;;;;;;;;;;;27.58;39.19;101292.72;5077524;28;1151;-33
2023/09/18 05:19:19;;;;;;;;;;;;;;;27.59;38.20;101296.28;5065165;28;1035;-30
2023/09/18 05:21:46;;;;;;;;;;;;;;;27.39;37.16;101294.78;5076141;28;1968;-31
2023/09/18 05:24:11;;;;;;;;;;;;;;;27.05;38.03;101293.16;5059772;28;1107;-28
2023/09/18 05:26:37;;;;;;;;;;;;;;;27.32;37.72;101292.94;5077087;28;1144;-28
2023/09/18 05:29:02;;;;;;;;;;;;;;;27.54;37.03;101291.41;5077243;28;916;-31
2023/09/18 05:31:28;;;;;;;;;;;;;;;27.62;37.63;101294.09;5077395;28;1078;-32
2023/09/18 05:33:53;;;;;;;;;;;;;;;28.08;37.07;101289.00;5076999;28;1261;-29
2023/09/18 05:36:19;;;;;;;;;;;;;;;27.75;36.50;101287.31;5070603;28;1062;-28
2023/09/18 05:38:44;;;;;;;;;;;;;;;27.56;36.99;101289.34;5065533;28;1102;-29
2023/09/18 05:41:10;;;;;;;;;;;;;;;27.78;36.47;101286.13;5076437;28;1950;-30
2023/09/18 05:43:35;;;;;;;;;;;;;;;27.42;36.79;101293.63;5075751;28;1800;-29
2023/09/18 05:46:01;;;;;;;;;;;;;;;27.72;37.23;101293.06;5067126;28;1136;-32
2023/09/18 05:48:27;;;;;;;;;;;;;;;27.63;37.66;101284.94;5076533;28;1043;-30
2023/09/18 05:50:54;;;;;;;;;;;;;;;27.61;36.62;101286.16;5072138;28;1055;-33
2023/09/18 05:53:19;;;;;;;;;;;;;;;27.67;36.69;101288.16;5068956;28;1112;-28
2023/09/18 05:55:45;;;;;;;;;;;;;;;27.65;36.37;101295.59;5071411;28;1105;-29
2023/09/18 05:58:11;;;;;;;;;;;;;;;27.79;36.83;101285.09;5049530;28;1017;-29
2023/09/18 06:00:36;;;;;;;;;;;;;;;28.05;36.47;101294.78;5068356;28;1901;-30
2023/09/18 06:03:02;;;;;;;;;;;;;;;28.09;36.05;101290.72;5075841;28;1031;-17
2023/09/18 06:05:30;;;;;;;;;;;;;;;28.17;36.97;101295.25;5058872;28;1110;-17
2023/09/18 06:07:56;;;;;;;;;;;;;;;28.14;36.05;101292.88;5076108;28;1115;-17
2023/09/18 06:10:21;;;;;;;;;;;;;;;27.93;37.21;101295.16;5075576;28;1444;-17
2023/09/18 06:12:47;;;;;;;;;;;;;;;27.84;36.76;101293.53;5076135;28;1055;-17
2023/09/18 06:15:12;;;;;;;;;;;;;;;27.92;36.71;101296.19;5075750;28;2611;-18
2023/09/18 06:17:39;;;;;;;;;;;;;;;27.94;37.06;101304.13;5075884;28;1073;-17
2023/09/18 06:20:04;;;;;;;;;;;;;;;27.86;37.20;101303.13;5066934;28;1906;-17
2023/09/18 06:22:30;;;;;;;;;;;;;;;27.94;37.19;101302.28;5076065;28;1027;-17
2023/09/18 06:24:56;;;;;;;;;;;;;;;27.96;37.65;101310.22;5062439;28;1159;-17
2023/09/18 06:27:21;;;;;;;;;;;;;;;27.98;37.52;101311.72;5070253;28;1328;-17
2023/09/18 06:29:47;;;;;;;;;;;;;;;28.20;36.82;101316.53;5069911;28;1249;-18
2023/09/18 06:32:13;;;;;;;;;;;;;;;28.21;36.90;101310.09;5068542;28;1333;-17
2023/09/18 06:34:42;;;;;;;;;;;;;;;28.07;37.82;101306.28;5060808;28;1140;-17
2023/09/18 06:37:08;;;;;;;;;;;;;;;28.08;36.81;101314.22;5076104;28;1080;-17
2023/09/18 06:39:33;;;;;;;;;;;;;;;28.18;37.28;101313.13;5073196;28;1039;-17
2023/09/18 06:41:59;;;;;;;;;;;;;;;28.19;37.20;101314.84;5065205;28;1973;-17
2023/09/18 06:44:24;;;;;;;;;;;;;;;28.39;36.73;101314.44;5067677;28;1824;-17
2023/09/18 06:46:50;;;;;;;;;;;;;;;28.27;36.69;101309.41;5065391;28;1262;-18
2023/09/18 06:49:15;;;;;;;;;;;;;;;26.95;34.96;101308.63;5074243;28;1051;-18
2023/09/18 06:51:41;;;;;;;;;;;;;;;27.74;35.43;101308.06;5072779;28;1364;-17
2023/09/18 06:54:06;;;;;;;;;;;;;;;28.11;36.12;101305.75;5075760;28;1043;-17
2023/09/18 06:56:32;;;;;;;;;;;;;;;28.29;35.76;101307.34;5076219;28;1190;-18
2023/09/18 06:58:57;;;;;;;;;;;;;;;28.29;36.06;101309.22;5063339;28;1066;-32
2023/09/18 07:01:24;;;;;;;;;;;;;;;28.33;36.50;101307.84;5055853;28;1890;-28
2023/09/18 07:03:50;;;;;;;;;;;;;;;28.21;35.49;101291.19;5058818;28;1122;-28
2023/09/18 07:06:15;;;;;;;;;;;;;;;28.30;35.86;101313.59;5076521;28;1079;-30
2023/09/18 07:08:42;;;;;;;;;;;;;;;28.30;35.94;101294.66;5075843;28;1031;-32
2023/09/18 07:11:08;;;;;;;;;;;;;;;28.32;34.60;101307.00;5055719;28;1018;-33
2023/09/18 07:13:33;;;;;;;;;;;;;;;28.31;33.04;101293.66;5060155;28;1811;-36
2023/09/18 07:15:59;;;;;;;;;;;;;;;28.64;33.31;101304.31;5058751;28;1023;-28
2023/09/18 07:18:25;;;;;;;;;;;;;;;28.48;33.29;101292.56;5072571;28;1016;-29
2023/09/18 07:20:50;;;;;;;;;;;;;;;28.50;33.98;101289.66;5068110;28;1975;-33
2023/09/18 07:23:16;;;;;;;;;;;;;;;28.60;34.22;101301.09;5065959;28;1189;-33
2023/09/18 07:25:43;;;;;;;;;;;;;;;28.51;34.94;101290.50;5078871;28;1167;-32
2023/09/18 07:28:08;;;;;;;;;;;;;;;28.49;34.27;101298.81;5068156;28;1257;-32
2023/09/18 07:30:35;;;;;;;;;;;;;;;28.51;34.47;101285.94;5075062;28;1362;-32
2023/09/18 07:33:01;;;;;;;;;;;;;;;28.39;34.11;101295.50;5068333;28;1336;-35
2023/09/18 07:35:27;;;;;;;;;;;;;;;28.48;34.37;101297.13;5069205;28;1320;-33
2023/09/18 07:37:52;;;;;;;;;;;;;;;28.53;34.31;101300.13;5076182;28;1277;-30
2023/09/18 07:40:18;;;;;;;;;;;;;;;28.61;34.39;101293.84;5068544;28;1989;-33
2023/09/18 07:42:44;;;;;;;;;;;;;;;28.66;34.36;101291.41;5079225;28;1099;-34
2023/09/18 07:45:12;;;;;;;;;;;;;;;28.62;34.91;101295.50;5078707;28;2077;-35
2023/09/18 07:47:38;;;;;;;;;;;;;;;28.91;32.74;101298.50;5076297;28;1090;-31
2023/09/18 07:50:04;;;;;;;;;;;;;;;28.82;33.84;101287.75;5061742;28;1206;-34
2023/09/18 07:52:31;;;;;;;;;;;;;;;28.91;33.21;101291.22;5077891;28;1105;-32
2023/09/18 07:54:58;;;;;;;;;;;;;;;28.79;33.81;101288.13;5078567;28;1077;-34
2023/09/18 07:57:23;;;;;;;;;;;;;;;28.80;34.49;101286.22;5078932;28;1103;-35
2023/09/18 07:59:49;;;;;;;;;;;;;;;28.83;33.96;101300.25;5078934;28;1074;-32
2023/09/18 08:02:15;;;;;;;;;;;;;;;28.91;34.09;101293.91;5074897;28;1926;-35
2023/09/18 08:04:42;;;;;;;;;;;;;;;28.86;34.45;101296.34;5078489;28;1058;-35
2023/09/18 08:07:08;;;;;;;;;;;;;;;29.06;33.63;101291.28;5065526;28;1000;-33
2023/09/18 08:09:36;;;;;;;;;;;;;;;29.15;33.36;101300.19;5079027;28;1269;-35
2023/09/18 08:12:02;;;;;;;;;;;;;;;29.32;31.61;101300.88;5063036;28;1249;-30
2023/09/18 08:14:28;;;;;;;;;;;;;;;29.31;30.93;101301.06;5061366;28;2090;-29
2023/09/18 08:16:57;;;;;;;;;;;;;;;29.26;30.26;101298.06;5068685;28;1127;-32
2023/09/18 08:19:23;;;;;;;;;;;;;;;29.42;32.06;101308.72;5059006;28;1004;-35
2023/09/18 08:21:49;;;;;;;;;;;;;;;29.29;33.71;101303.97;5053514;28;1906;-34
2023/09/18 08:24:14;;;;;;;;;;;;;;;29.24;34.34;101300.09;5059296;28;1190;-30
2023/09/18 08:26:40;;;;;;;;;;;;;;;29.20;33.23;101300.47;5061963;28;1068;-31
2023/09/18 08:29:05;;;;;;;;;;;;;;;29.05;33.86;101299.59;5076800;28;1062;-33
2023/09/18 08:31:31;;;;;;;;;;;;;;;29.09;34.14;101299.03;5078400;28;1066;-35
2023/09/18 08:33:57;;;;;;;;;;;;;;;29.28;33.72;101296.84;5067828;28;1022;-30
2023/09/18 08:36:22;;;;;;;;;;;;;;;26.18;38.27;101295.16;5064793;28;1076;-29
2023/09/18 08:38:48;;;;;;;;;;;;;;;24.48;41.99;101288.88;5058366;28;1480;-36
2023/09/18 08:41:13;;;;;;;;;;;;;;;24.23;42.49;101290.44;5066548;28;1909;-36
2023/09/18 08:43:39;;;;;;;;;;;;;;;23.58;43.72;101292.94;5060265;28;2042;-33
2023/09/18 08:46:05;;;;;;;;;;;;;;;23.16;44.55;101291.44;5060665;28;1151;-32
2023/09/18 08:48:34;;;;;;;;;;;;;;;23.19;44.45;101294.69;5078529;28;1138;-34
2023/09/18 08:51:06;;;;;;;;;;;;;;;22.85;44.94;101271.84;5065032;28;1125;-33
2023/09/18 08:53:32;;;;;;;;;;;;;;;25.35;41.13;101287.47;5078259;28;1123;-33
2023/09/18 08:55:58;;;;;;;;;;;;;;;26.73;36.92;101292.09;5047345;28;1099;-35
2023/09/18 08:58:24;;;;;;;;;;;;;;;23.26;43.68;101297.63;5073152;28;1316;-33
2023/09/18 09:00:50;;;;;;;;;;;;;;;22.35;45.29;101287.00;5059864;28;1906;-29
2023/09/18 09:03:15;;;;;;;;;;;;;;;22.03;45.91;101282.66;5077875;28;1047;-35
2023/09/18 09:05:41;;;;;;;;;;;;;;;23.64;44.37;101272.72;5058182;28;1038;-33
2023/09/18 09:08:07;;;;;;;;;;;;;;;25.68;38.24;101289.53;5073508;28;1089;-34
2023/09/18 09:10:32;;;;;;;;;;;;;;;22.82;44.71;101288.19;5070456;28;1129;-30
2023/09/18 09:12:58;;;;;;;;;;;;;;;22.04;47.28;101286.19;5066502;28;1049;-34
2023/09/18 09:15:25;;;;;;;;;;;;;;;21.71;48.33;101294.31;5068856;28;2113;-33
2023/09/18 09:17:51;;;;;;;;;;;;;;;21.84;48.50;101297.66;5073018;28;1133;-32
2023/09/18 09:20:18;;;;;;;;;;;;;;;22.71;50.39;101283.81;5077687;28;1909;-33
2023/09/18 09:22:44;;;;;;;;;;;;;;;25.70;40.00;101284.84;5077311;28;1003;-36
2023/09/18 09:25:31;;;;;;;;;;;;;;;26.80;38.75;101303.91;5071152;28;1162;-34
2023/09/18 09:27:57;;;;;;;;;;;;;;;23.23;44.88;101298.78;5056888;28;1115;-34
2023/09/18 09:30:23;;;;;;;;;;;;;;;22.37;47.66;101303.78;5074250;28;1210;-33
2023/09/18 09:32:50;;;;;;;;;;;;;;;21.87;49.18;101299.25;5077694;28;1056;-35
2023/09/18 09:35:28;;;;;;;;;;;;;;;21.93;49.68;101297.84;5077353;28;1249;-33
2023/09/18 09:37:56;;;;;;;;;;;;;;;21.83;50.29;101290.63;5077084;28;1250;-34
2023/09/18 09:40:21;;;;;;;;;;;;;;;21.89;50.19;101302.63;5076985;28;1917;-32
2023/09/18 09:42:47;;;;;;;;;;;;;;;24.93;44.41;101303.31;5069802;28;1078;-36
2023/09/18 09:45:14;;;;;;;;;;;;;;;23.85;44.16;101305.59;5074368;28;2212;-35
2023/09/18 09:47:40;;;;;;;;;;;;;;;22.50;48.51;101303.50;5076869;28;1085;-35
2023/09/18 09:50:06;;;;;;;;;;;;;;;22.01;49.94;101298.88;5049919;28;1055;-35
2023/09/18 09:52:33;;;;;;;;;;;;;;;21.96;50.48;101293.06;5073008;28;1059;-33
2023/09/18 09:54:58;;;;;;;;;;;;;;;22.06;50.55;101294.94;5084235;28;1066;-32
2023/09/18 09:57:24;;;;;;;;;;;;;;;21.94;51.13;101292.34;5070819;28;1106;-31
2023/09/18 09:59:49;;;;;;;;;;;;;;;23.81;49.08;101298.81;5069782;28;1276;-34
2023/09/18 10:02:19;;;;;;;;;;;;;;;25.63;41.81;101289.16;5075376;28;1979;-30
2023/09/18 10:04:48;;;;;;;;;;;;;;;22.62;47.70;101290.03;5058944;28;1134;-36
2023/09/18 10:07:13;;;;;;;;;;;;;;;21.83;48.83;101279.06;5076406;28;956;-34
2023/09/18 10:09:39;;;;;;;;;;;;;;;21.72;50.32;101282.66;5064769;28;1046;-34
2023/09/18 10:12:06;;;;;;;;;;;;;;;21.94;50.37;101288.84;5058413;28;1376;-35
2023/09/18 10:14:34;;;;;;;;;;;;;;;22.17;49.97;101294.81;5075725;28;1962;-34
2023/09/18 10:16:59;;;;;;;;;;;;;;;22.09;50.48;101292.84;5058324;28;1351;-33
2023/09/18 10:19:37;;;;;;;;;;;;;;;22.36;49.75;101295.88;5044850;28;1258;-33
2023/09/18 10:22:11;;;;;;;;;;;;;;;24.76;45.62;101275.34;5071821;28;1971;-34
2023/09/18 10:24:37;;;;;;;;;;;;;;;24.99;42.85;101282.97;5046686;28;1143;-30
2023/09/18 10:27:03;;;;;;;;;;;;;;;22.46;47.89;101287.84;5051006;28;1118;-29
2023/09/18 10:29:29;;;;;;;;;;;;;;;21.83;49.58;101282.59;5049913;28;1020;-30
2023/09/18 10:31:55;;;;;;;;;;;;;;;21.85;50.21;101277.97;5066400;28;1177;-30
2023/09/18 10:34:22;;;;;;;;;;;;;;;22.14;49.64;101279.88;5076509;28;1123;-33
2023/09/18 10:36:48;;;;;;;;;;;;;;;23.85;47.69;101277.88;5075563;28;1007;-33
2023/09/18 10:39:19;;;;;;;;;;;;;;;25.61;42.11;101277.69;5075581;28;1114;-31
2023/09/18 10:41:48;;;;;;;;;;;;;;;23.65;46.12;101280.63;5071074;28;1981;-37
2023/09/18 10:44:13;;;;;;;;;;;;;;;24.97;44.50;101279.63;5069156;28;1858;-33
2023/09/18 10:46:39;;;;;;;;;;;;;;;25.14;42.34;101277.06;5075116;28;983;-35
2023/09/18 10:49:05;;;;;;;;;;;;;;;23.88;45.49;101277.56;5075358;28;1059;-32
2023/09/18 10:51:31;;;;;;;;;;;;;;;23.58;50.78;101277.69;5056256;28;1103;-36
2023/09/18 10:53:56;;;;;;;;;;;;;;;26.07;41.70;101263.94;5063364;28;1000;-37
2023/09/18 10:56:22;;;;;;;;;;;;;;;24.36;44.63;101261.34;5061598;28;1011;-33
2023/09/18 10:58:55;;;;;;;;;;;;;;;23.22;46.73;101259.50;5061603;28;1050;-32
2023/09/18 11:01:21;;;;;;;;;;;;;;;25.52;42.89;101253.41;5060666;28;1969;-34
2023/09/18 11:03:46;;;;;;;;;;;;;;;24.43;43.80;101259.75;5039911;28;1300;-32
2023/09/18 11:06:14;;;;;;;;;;;;;;;23.21;46.71;101268.56;5074226;28;1062;-34
2023/09/18 11:08:45;;;;;;;;;;;;;;;22.72;47.64;101261.38;5075306;28;1339;-32
2023/09/18 11:11:13;;;;;;;;;;;;;;;25.01;43.97;101259.44;5073414;28;1410;-30
2023/09/18 11:13:42;;;;;;;;;;;;;;;24.64;42.72;101255.91;5064990;28;1950;-32
2023/09/18 11:16:13;;;;;;;;;;;;;;;23.89;44.92;101262.31;5065840;28;1043;-35
2023/09/18 11:18:39;;;;;;;;;;;;;;;22.82;47.42;101266.72;5071148;28;1167;-34
2023/09/18 11:21:07;;;;;;;;;;;;;;;25.37;42.78;101260.38;5072925;28;1938;-34
2023/09/18 11:23:42;;;;;;;;;;;;;;;24.48;43.48;101256.59;5071683;28;1265;-37
2023/09/18 11:26:08;;;;;;;;;;;;;;;24.16;44.27;101260.59;5069263;28;1273;-31
2023/09/18 11:28:34;;;;;;;;;;;;;;;25.09;43.72;101260.53;5070930;28;1044;-32
2023/09/18 11:31:01;;;;;;;;;;;;;;;26.03;40.10;101252.63;5068734;28;1304;-33
2023/09/18 11:33:44;;;;;;;;;;;;;;;24.16;44.39;101252.53;5071955;28;1091;-33
2023/09/18 11:36:32;;;;;;;;;;;;;;;23.48;49.25;101248.19;5068748;28;1253;-31
2023/09/18 11:39:01;;;;;;;;;;;;;;;26.37;40.37;101237.44;5075312;28;1332;-36
2023/09/18 11:41:29;;;;;;;;;;;;;;;24.11;44.73;101244.91;5062154;28;1961;-34
2023/09/18 11:44:06;;;;;;;;;;;;;;;22.72;47.66;101245.28;5066721;28;1945;-33
2023/09/18 11:46:32;;;;;;;;;;;;;;;22.41;48.14;101226.63;5075670;28;1205;-34
2023/09/18 11:48:59;;;;;;;;;;;;;;;22.19;48.22;101244.63;5053261;28;1122;-36
2023/09/18 11:51:24;;;;;;;;;;;;;;;22.61;50.27;101240.06;5037510;28;1015;-34
2023/09/18 11:53:51;;;;;;;;;;;;;;;25.74;40.54;101231.47;5056540;28;1155;-32
2023/09/18 11:56:18;;;;;;;;;;;;;;;23.64;42.89;101240.50;5075092;28;1524;-33
2023/09/18 11:58:50;;;;;;;;;;;;;;;22.45;46.31;101229.88;5070406;28;992;-34
2023/09/18 12:01:17;;;;;;;;;;;;;;;22.13;46.96;101237.16;5066553;28;1985;-35
2023/09/18 12:03:43;;;;;;;;;;;;;;;22.01;47.34;101241.75;5057126;28;1090;-34
2023/09/18 12:06:12;;;;;;;;;;;;;;;22.19;47.17;101235.75;5057982;28;1090;-37
2023/09/18 12:08:38;;;;;;;;;;;;;;;22.24;47.27;101238.84;5039326;28;1058;-34
2023/09/18 12:11:06;;;;;;;;;;;;;;;24.37;44.46;101240.69;5059250;28;1039;-34
2023/09/18 12:13:32;;;;;;;;;;;;;;;25.23;39.46;101234.88;5066124;28;1903;-34
2023/09/18 12:15:58;;;;;;;;;;;;;;;22.30;45.79;101227.59;5052659;28;1293;-33
2023/09/18 12:18:25;;;;;;;;;;;;;;;21.57;48.00;101247.34;5078433;28;1181;-34
2023/09/18 12:20:50;;;;;;;;;;;;;;;21.75;48.42;101243.03;5075894;28;1894;-35
2023/09/18 12:23:16;;;;;;;;;;;;;;;21.82;48.77;101248.75;5070569;28;1054;-32
2023/09/18 12:25:44;;;;;;;;;;;;;;;21.79;48.73;101232.94;5058247;28;1112;-35
2023/09/18 12:28:10;;;;;;;;;;;;;;;21.80;49.10;101242.69;5061670;28;1079;-36
2023/09/18 12:30:36;;;;;;;;;;;;;;;22.67;51.05;101244.03;5064590;28;1141;-35
2023/09/18 12:33:03;;;;;;;;;;;;;;;25.81;40.94;101245.97;5059734;28;1079;-35
2023/09/18 12:35:29;;;;;;;;;;;;;;;23.54;43.95;101243.22;5048045;28;1027;-35
2023/09/18 12:37:59;;;;;;;;;;;;;;;22.22;47.54;101236.31;5063226;28;1277;-33
2023/09/18 12:40:28;;;;;;;;;;;;;;;21.76;48.68;101235.88;5074571;28;1985;-34
2023/09/18 12:42:54;;;;;;;;;;;;;;;21.70;49.05;101220.34;5077184;28;1174;-36